Vicksburg, Indiana
Current Conditions -  °F | °C
As of 4:15 PM on Saturday 22 Nov 2014 (Local Time) from KDCY Reporting Station
Broken Clouds Broken Clouds  
Wind Chill: 59°   Ceiling: 6000
Heat Index: 59°   Visibility: 10mi
Dew Point: 43°   Wind: 12mph
Humidity: 55%   Direction: 200°SSW
Pressure: 30.05"   Gusts: NA
Location:  39.0608°N, 87.1852°W
Report Text: KDCY 222115Z AUTO 20010KT 10SM BKN060 BKN070 15/06 A3005 RMK AO2 T01500061
Loading
Personal Weather Stations






























Interactive Weather Map New forecast layout! Learn more

10-Day Weather Forecast

Advertisements
Track Severe Weather on mobile